EIN6PE EIDW-KLAX
Flight info
| Callsign | EIN6PE |
|---|---|
| Flight time | N/A |
| Altitude | 36000 |
| Route | SUROX3J SUROX DCT REVNU DCT SUNOT/M081F360 NATB NIFTY/N0475F380 DCT JELCO DCT KELMU DCT 56N090W DCT KAIIN DCT SEGAP/N0463F400 Q945 DIK DCT FBR DCT MLF DCT WINEN/N0445F390 Q73 EEVUN/N0449F400 Q73 HAKMN ANJLL4 |
| Aircraft | A333/H-SDE3GHIJ2J3J5M1RVWXY/LB2D1 |
Departure
| Time | N/A |
|---|---|
| Airport | Dublin Airport (EIDW) |
Arrival
| Time | 2026-05-07 22:52 |
|---|---|
| Airport | Los Angeles International Airport (KLAX) |
| Time | Latitude | Longitude | Altitude | Speed | Heading |
|---|---|---|---|---|---|
| 2026-05-07 21:23 | 41.63632 | -110.10790 | 39937 ft | 452 kts | 231° |
| 2026-05-07 21:24 | 41.58998 | -110.16496 | 39929 ft | 453 kts | 231° |
| 2026-05-07 21:24 | 41.54358 | -110.22198 | 39948 ft | 453 kts | 230° |
| 2026-05-07 21:25 | 41.49712 | -110.27895 | 39956 ft | 454 kts | 230° |
| 2026-05-07 21:25 | 41.47388 | -110.30740 | 40149 ft | 454 kts | 230° |
| 2026-05-07 21:25 | 41.45085 | -110.33556 | 40165 ft | 454 kts | 230° |
| 2026-05-07 21:26 | 41.40470 | -110.39193 | 40168 ft | 454 kts | 230° |
| 2026-05-07 21:26 | 41.35945 | -110.44273 | 40148 ft | 460 kts | 224° |
| 2026-05-07 21:27 | 41.30923 | -110.48898 | 40150 ft | 465 kts | 221° |
| 2026-05-07 21:27 | 41.25509 | -110.53643 | 40116 ft | 466 kts | 220° |
| 2026-05-07 21:28 | 41.20113 | -110.58415 | 40087 ft | 466 kts | 221° |
| 2026-05-07 21:28 | 41.14771 | -110.63193 | 40042 ft | 466 kts | 221° |
| 2026-05-07 21:29 | 41.09399 | -110.68015 | 40062 ft | 466 kts | 221° |
| 2026-05-07 21:29 | 41.04026 | -110.72830 | 40059 ft | 466 kts | 221° |
| 2026-05-07 21:30 | 40.98651 | -110.77633 | 40055 ft | 466 kts | 221° |
| 2026-05-07 21:30 | 40.94185 | -110.81615 | 40037 ft | 465 kts | 220° |
| 2026-05-07 21:31 | 40.87937 | -110.87173 | 40060 ft | 466 kts | 220° |
| 2026-05-07 21:31 | 40.82551 | -110.91957 | 40068 ft | 466 kts | 220° |
| 2026-05-07 21:32 | 40.78078 | -110.95923 | 40069 ft | 466 kts | 220° |
| 2026-05-07 21:32 | 40.72691 | -111.00690 | 40062 ft | 466 kts | 220° |
| 2026-05-07 21:33 | 40.66426 | -111.06228 | 40060 ft | 466 kts | 220° |
| 2026-05-07 21:33 | 40.61911 | -111.10207 | 40069 ft | 466 kts | 220° |
| 2026-05-07 21:34 | 40.56560 | -111.14909 | 40065 ft | 465 kts | 220° |
| 2026-05-07 21:34 | 40.51172 | -111.19643 | 40085 ft | 466 kts | 220° |
| 2026-05-07 21:35 | 40.45783 | -111.24362 | 40092 ft | 466 kts | 220° |
| 2026-05-07 21:35 | 40.40389 | -111.29077 | 40087 ft | 466 kts | 220° |
| 2026-05-07 21:36 | 40.34992 | -111.33784 | 40091 ft | 466 kts | 219° |
| 2026-05-07 21:36 | 40.29621 | -111.38463 | 40078 ft | 466 kts | 219° |
| 2026-05-07 21:37 | 40.24213 | -111.43164 | 40064 ft | 467 kts | 219° |
| 2026-05-07 21:37 | 40.18794 | -111.47865 | 40048 ft | 467 kts | 219° |
| 2026-05-07 21:38 | 40.13381 | -111.52546 | 40025 ft | 466 kts | 219° |
| 2026-05-07 21:38 | 40.07973 | -111.57228 | 40070 ft | 467 kts | 219° |
| 2026-05-07 21:39 | 40.02592 | -111.61873 | 40011 ft | 467 kts | 219° |
| 2026-05-07 21:39 | 39.97169 | -111.66542 | 40011 ft | 467 kts | 219° |
| 2026-05-07 21:40 | 39.91750 | -111.71197 | 40015 ft | 467 kts | 219° |
| 2026-05-07 21:40 | 39.86322 | -111.75851 | 40007 ft | 467 kts | 219° |
| 2026-05-07 21:41 | 39.80930 | -111.80465 | 39999 ft | 468 kts | 218° |
| 2026-05-07 21:41 | 39.75485 | -111.85117 | 40006 ft | 468 kts | 218° |
| 2026-05-07 21:42 | 39.70038 | -111.89762 | 40018 ft | 468 kts | 218° |
| 2026-05-07 21:42 | 39.64594 | -111.94396 | 40007 ft | 468 kts | 218° |
| 2026-05-07 21:43 | 39.59141 | -111.99029 | 40005 ft | 468 kts | 218° |
| 2026-05-07 21:43 | 39.53725 | -112.03621 | 40018 ft | 468 kts | 218° |
| 2026-05-07 21:44 | 39.48272 | -112.08234 | 40010 ft | 468 kts | 218° |
| 2026-05-07 21:44 | 39.42814 | -112.12844 | 40004 ft | 468 kts | 218° |
| 2026-05-07 21:45 | 39.37358 | -112.17442 | 40002 ft | 468 kts | 217° |
| 2026-05-07 21:45 | 39.31898 | -112.22038 | 40003 ft | 469 kts | 217° |
| 2026-05-07 21:46 | 39.26424 | -112.26637 | 40007 ft | 469 kts | 217° |
| 2026-05-07 21:46 | 39.20994 | -112.31195 | 40048 ft | 469 kts | 217° |
| 2026-05-07 21:47 | 39.15521 | -112.35769 | 40058 ft | 469 kts | 217° |
| 2026-05-07 21:47 | 39.10044 | -112.40340 | 40079 ft | 469 kts | 217° |
| 2026-05-07 21:48 | 39.04559 | -112.44911 | 40093 ft | 470 kts | 217° |
| 2026-05-07 21:48 | 38.99070 | -112.49475 | 40093 ft | 469 kts | 216° |
| 2026-05-07 21:49 | 38.96332 | -112.51750 | 39988 ft | 469 kts | 216° |
| 2026-05-07 21:49 | 38.93589 | -112.54027 | 39993 ft | 469 kts | 216° |
| 2026-05-07 21:49 | 38.88142 | -112.58543 | 40001 ft | 469 kts | 216° |
| 2026-05-07 21:50 | 38.82657 | -112.63081 | 39995 ft | 470 kts | 216° |
| 2026-05-07 21:50 | 38.77161 | -112.67620 | 39991 ft | 470 kts | 216° |
| 2026-05-07 21:51 | 38.71665 | -112.72149 | 39983 ft | 470 kts | 216° |
| 2026-05-07 21:51 | 38.66169 | -112.76670 | 40013 ft | 470 kts | 216° |
| 2026-05-07 21:52 | 38.60671 | -112.81185 | 40033 ft | 469 kts | 215° |
| 2026-05-07 21:52 | 38.55185 | -112.85681 | 40052 ft | 468 kts | 215° |
| 2026-05-07 21:53 | 38.49733 | -112.90142 | 40097 ft | 468 kts | 215° |
| 2026-05-07 21:53 | 38.44248 | -112.94622 | 40093 ft | 468 kts | 215° |
| 2026-05-07 21:54 | 38.38759 | -112.99098 | 40106 ft | 468 kts | 215° |
| 2026-05-07 21:54 | 38.33515 | -113.03959 | 40104 ft | 465 kts | 223° |
| 2026-05-07 21:55 | 38.28715 | -113.09453 | 40064 ft | 464 kts | 226° |
| 2026-05-07 21:55 | 38.23988 | -113.15035 | 40036 ft | 464 kts | 225° |
| 2026-05-07 21:56 | 38.19260 | -113.20526 | 40005 ft | 463 kts | 225° |
| 2026-05-07 21:56 | 38.14465 | -113.26015 | 39964 ft | 464 kts | 225° |
| 2026-05-07 21:57 | 38.09651 | -113.31463 | 39956 ft | 464 kts | 223° |
| 2026-05-07 21:57 | 38.04796 | -113.36859 | 39952 ft | 464 kts | 223° |
| 2026-05-07 21:58 | 37.99959 | -113.42280 | 39950 ft | 464 kts | 223° |
| 2026-05-07 21:58 | 37.95116 | -113.47613 | 39951 ft | 465 kts | 216° |
| 2026-05-07 21:59 | 37.92295 | -113.49609 | 39953 ft | 467 kts | 202° |
| 2026-05-07 21:59 | 37.89194 | -113.50824 | 39948 ft | 467 kts | 195° |
| 2026-05-07 21:59 | 37.82804 | -113.52585 | 39953 ft | 472 kts | 191° |
| 2026-05-07 22:00 | 37.76325 | -113.54052 | 39960 ft | 474 kts | 190° |
| 2026-05-07 22:00 | 37.69832 | -113.55540 | 39960 ft | 474 kts | 191° |
| 2026-05-07 22:01 | 37.63346 | -113.57096 | 39962 ft | 474 kts | 191° |
| 2026-05-07 22:01 | 37.56913 | -113.58659 | 39959 ft | 474 kts | 192° |
| 2026-05-07 22:02 | 37.50440 | -113.60231 | 39961 ft | 474 kts | 191° |
| 2026-05-07 22:02 | 37.44128 | -113.61744 | 39962 ft | 474 kts | 192° |
| 2026-05-07 22:03 | 37.37657 | -113.63328 | 39950 ft | 474 kts | 192° |
| 2026-05-07 22:03 | 37.31180 | -113.64911 | 39943 ft | 475 kts | 192° |
| 2026-05-07 22:04 | 37.24725 | -113.66459 | 39959 ft | 476 kts | 191° |
| 2026-05-07 22:04 | 37.18215 | -113.68006 | 39968 ft | 476 kts | 191° |
| 2026-05-07 22:05 | 37.11706 | -113.69549 | 39970 ft | 476 kts | 191° |
| 2026-05-07 22:05 | 37.05229 | -113.71200 | 39975 ft | 474 kts | 199° |
| 2026-05-07 22:06 | 36.99018 | -113.73942 | 39970 ft | 473 kts | 201° |
| 2026-05-07 22:06 | 36.92914 | -113.76885 | 39958 ft | 473 kts | 202° |
| 2026-05-07 22:07 | 36.86784 | -113.79891 | 39943 ft | 473 kts | 202° |
| 2026-05-07 22:07 | 36.80645 | -113.82880 | 39932 ft | 474 kts | 202° |
| 2026-05-07 22:08 | 36.74507 | -113.85846 | 39933 ft | 474 kts | 202° |
| 2026-05-07 22:08 | 36.68406 | -113.88784 | 39926 ft | 474 kts | 202° |
| 2026-05-07 22:09 | 36.62341 | -113.91844 | 39926 ft | 474 kts | 204° |
| 2026-05-07 22:09 | 36.56316 | -113.95183 | 39922 ft | 474 kts | 205° |
| 2026-05-07 22:10 | 36.50304 | -113.98556 | 39918 ft | 474 kts | 205° |
| 2026-05-07 22:10 | 36.44279 | -114.01901 | 39903 ft | 474 kts | 205° |
| 2026-05-07 22:11 | 36.38455 | -114.05715 | 39905 ft | 473 kts | 212° |
| 2026-05-07 22:11 | 36.32823 | -114.09956 | 39901 ft | 474 kts | 213° |
| 2026-05-07 22:12 | 36.27261 | -114.14244 | 39888 ft | 474 kts | 213° |
| 2026-05-07 22:12 | 36.21658 | -114.18561 | 39889 ft | 474 kts | 213° |
| 2026-05-07 22:13 | 36.16049 | -114.22859 | 39889 ft | 474 kts | 212° |
| 2026-05-07 22:13 | 36.10446 | -114.27163 | 39884 ft | 474 kts | 216° |
| 2026-05-07 22:14 | 36.05620 | -114.32635 | 39885 ft | 471 kts | 228° |
| 2026-05-07 22:14 | 36.01199 | -114.38627 | 39882 ft | 472 kts | 230° |
| 2026-05-07 22:15 | 35.96892 | -114.44662 | 39886 ft | 471 kts | 230° |
| 2026-05-07 22:15 | 35.92546 | -114.50726 | 39900 ft | 471 kts | 230° |
| 2026-05-07 22:16 | 35.88183 | -114.56760 | 39910 ft | 471 kts | 230° |
| 2026-05-07 22:16 | 35.83812 | -114.62778 | 39887 ft | 471 kts | 230° |
| 2026-05-07 22:17 | 35.79432 | -114.68792 | 39934 ft | 471 kts | 229° |
| 2026-05-07 22:17 | 35.75080 | -114.74761 | 39933 ft | 471 kts | 229° |
| 2026-05-07 22:18 | 35.68505 | -114.83760 | 39966 ft | 471 kts | 229° |
| 2026-05-07 22:19 | 35.64123 | -114.89754 | 39963 ft | 471 kts | 229° |
| 2026-05-07 22:19 | 35.59738 | -114.95751 | 39963 ft | 471 kts | 229° |
| 2026-05-07 22:20 | 35.55352 | -115.01741 | 39960 ft | 471 kts | 229° |
| 2026-05-07 22:20 | 35.50963 | -115.07717 | 39966 ft | 472 kts | 229° |
| 2026-05-07 22:21 | 35.46484 | -115.13607 | 39961 ft | 472 kts | 228° |
| 2026-05-07 22:21 | 35.42013 | -115.19438 | 39972 ft | 473 kts | 228° |
| 2026-05-07 22:22 | 35.37508 | -115.25309 | 39973 ft | 473 kts | 228° |
| 2026-05-07 22:22 | 35.33000 | -115.31176 | 39982 ft | 473 kts | 228° |
| 2026-05-07 22:23 | 35.28493 | -115.37032 | 39971 ft | 472 kts | 228° |
| 2026-05-07 22:23 | 35.23987 | -115.42878 | 39977 ft | 472 kts | 228° |
| 2026-05-07 22:24 | 35.19522 | -115.48685 | 39978 ft | 472 kts | 230° |
| 2026-05-07 22:24 | 35.15047 | -115.54555 | 39968 ft | 472 kts | 229° |
| 2026-05-07 22:25 | 35.10543 | -115.60386 | 39961 ft | 473 kts | 229° |
| 2026-05-07 22:25 | 35.08274 | -115.63298 | 39770 ft | 473 kts | 229° |
| 2026-05-07 22:25 | 35.06004 | -115.66203 | 39469 ft | 472 kts | 229° |
| 2026-05-07 22:25 | 35.03737 | -115.69100 | 39231 ft | 471 kts | 229° |
| 2026-05-07 22:26 | 35.01471 | -115.71995 | 38998 ft | 472 kts | 229° |
| 2026-05-07 22:26 | 34.99204 | -115.74887 | 38766 ft | 472 kts | 229° |
| 2026-05-07 22:26 | 34.96961 | -115.77748 | 38529 ft | 473 kts | 229° |
| 2026-05-07 22:26 | 34.94683 | -115.80649 | 38239 ft | 474 kts | 229° |
| 2026-05-07 22:27 | 34.92399 | -115.83557 | 37952 ft | 475 kts | 229° |
| 2026-05-07 22:27 | 34.90110 | -115.86468 | 37674 ft | 476 kts | 229° |
| 2026-05-07 22:27 | 34.87817 | -115.89381 | 37399 ft | 477 kts | 229° |
| 2026-05-07 22:27 | 34.85520 | -115.92299 | 37150 ft | 478 kts | 229° |
| 2026-05-07 22:28 | 34.83216 | -115.95221 | 36905 ft | 478 kts | 229° |
| 2026-05-07 22:28 | 34.80912 | -115.98142 | 36648 ft | 479 kts | 229° |
| 2026-05-07 22:28 | 34.78604 | -116.01067 | 36166 ft | 480 kts | 229° |
| 2026-05-07 22:28 | 34.76294 | -116.04002 | 35631 ft | 481 kts | 229° |
| 2026-05-07 22:29 | 34.73997 | -116.06893 | 35099 ft | 482 kts | 227° |
| 2026-05-07 22:29 | 34.71657 | -116.09821 | 34561 ft | 483 kts | 227° |
| 2026-05-07 22:29 | 34.69319 | -116.12762 | 34053 ft | 485 kts | 227° |
| 2026-05-07 22:29 | 34.66972 | -116.15724 | 33463 ft | 486 kts | 227° |
| 2026-05-07 22:30 | 34.64629 | -116.18690 | 32885 ft | 488 kts | 227° |
| 2026-05-07 22:30 | 34.62279 | -116.21668 | 32317 ft | 490 kts | 227° |
| 2026-05-07 22:30 | 34.59917 | -116.24660 | 31779 ft | 489 kts | 227° |
| 2026-05-07 22:30 | 34.57578 | -116.27621 | 31388 ft | 483 kts | 227° |
| 2026-05-07 22:31 | 34.55262 | -116.30552 | 30887 ft | 480 kts | 227° |
| 2026-05-07 22:31 | 34.52956 | -116.33469 | 30341 ft | 478 kts | 227° |
| 2026-05-07 22:31 | 34.50664 | -116.36366 | 29774 ft | 476 kts | 227° |
| 2026-05-07 22:31 | 34.48381 | -116.39249 | 29376 ft | 469 kts | 227° |
| 2026-05-07 22:32 | 34.46175 | -116.42032 | 29167 ft | 459 kts | 227° |
| 2026-05-07 22:32 | 34.43989 | -116.44790 | 28915 ft | 450 kts | 228° |
| 2026-05-07 22:32 | 34.41980 | -116.47655 | 28525 ft | 443 kts | 236° |
| 2026-05-07 22:32 | 34.40393 | -116.50812 | 28105 ft | 437 kts | 244° |
| 2026-05-07 22:33 | 34.39020 | -116.54071 | 27666 ft | 433 kts | 246° |
| 2026-05-07 22:33 | 34.37689 | -116.57330 | 27230 ft | 430 kts | 246° |
| 2026-05-07 22:33 | 34.36371 | -116.60557 | 26834 ft | 426 kts | 246° |
| 2026-05-07 22:33 | 34.35058 | -116.63760 | 26398 ft | 424 kts | 245° |
| 2026-05-07 22:34 | 34.33750 | -116.66943 | 25951 ft | 422 kts | 246° |
| 2026-05-07 22:34 | 34.32455 | -116.70143 | 25290 ft | 425 kts | 246° |
| 2026-05-07 22:34 | 34.31160 | -116.73371 | 24735 ft | 427 kts | 246° |
| 2026-05-07 22:34 | 34.29866 | -116.76592 | 24306 ft | 425 kts | 246° |
| 2026-05-07 22:35 | 34.28577 | -116.79797 | 23864 ft | 423 kts | 246° |
| 2026-05-07 22:35 | 34.27308 | -116.82948 | 23369 ft | 422 kts | 246° |
| 2026-05-07 22:35 | 34.26028 | -116.86121 | 22874 ft | 418 kts | 246° |
| 2026-05-07 22:35 | 34.24759 | -116.89265 | 22427 ft | 414 kts | 245° |
| 2026-05-07 22:36 | 34.23501 | -116.92379 | 21968 ft | 410 kts | 245° |
| 2026-05-07 22:36 | 34.22250 | -116.95472 | 21486 ft | 408 kts | 245° |
| 2026-05-07 22:36 | 34.21083 | -116.98577 | 20997 ft | 405 kts | 251° |
| 2026-05-07 22:36 | 34.20151 | -117.01767 | 20527 ft | 402 kts | 253° |
| 2026-05-07 22:37 | 34.19286 | -117.04966 | 20091 ft | 398 kts | 254° |
| 2026-05-07 22:37 | 34.18436 | -117.08136 | 19628 ft | 395 kts | 254° |
| 2026-05-07 22:37 | 34.17589 | -117.11288 | 19122 ft | 394 kts | 254° |
| 2026-05-07 22:37 | 34.16741 | -117.14427 | 18687 ft | 392 kts | 254° |
| 2026-05-07 22:38 | 34.15890 | -117.17545 | 18189 ft | 391 kts | 253° |
| 2026-05-07 22:38 | 34.15039 | -117.20645 | 17732 ft | 387 kts | 253° |
| 2026-05-07 22:38 | 34.14197 | -117.23713 | 17297 ft | 382 kts | 255° |
| 2026-05-07 22:38 | 34.13406 | -117.26713 | 16999 ft | 380 kts | 255° |
| 2026-05-07 22:39 | 34.12617 | -117.29706 | 16411 ft | 381 kts | 255° |
| 2026-05-07 22:39 | 34.11804 | -117.32733 | 15974 ft | 377 kts | 254° |
| 2026-05-07 22:39 | 34.10988 | -117.35733 | 15501 ft | 374 kts | 254° |
| 2026-05-07 22:39 | 34.10214 | -117.38702 | 15088 ft | 369 kts | 255° |
| 2026-05-07 22:40 | 34.09476 | -117.41654 | 14580 ft | 367 kts | 256° |
| 2026-05-07 22:40 | 34.08744 | -117.44595 | 14120 ft | 365 kts | 256° |
| 2026-05-07 22:40 | 34.08018 | -117.47499 | 13869 ft | 356 kts | 255° |
| 2026-05-07 22:40 | 34.07274 | -117.50290 | 13449 ft | 352 kts | 252° |
| 2026-05-07 22:41 | 34.06408 | -117.53059 | 12936 ft | 351 kts | 250° |
| 2026-05-07 22:41 | 34.05478 | -117.55754 | 12574 ft | 345 kts | 249° |
| 2026-05-07 22:41 | 34.04524 | -117.58389 | 12185 ft | 341 kts | 249° |
| 2026-05-07 22:41 | 34.03559 | -117.61009 | 11673 ft | 341 kts | 249° |
| 2026-05-07 22:42 | 34.02615 | -117.63569 | 11336 ft | 335 kts | 250° |
| 2026-05-07 22:42 | 34.01668 | -117.66149 | 10908 ft | 332 kts | 249° |
| 2026-05-07 22:42 | 34.00975 | -117.68769 | 10461 ft | 326 kts | 262° |
| 2026-05-07 22:42 | 34.00577 | -117.71409 | 10069 ft | 322 kts | 262° |
| 2026-05-07 22:43 | 34.00205 | -117.74055 | 9664 ft | 318 kts | 263° |
| 2026-05-07 22:43 | 33.99876 | -117.76680 | 9233 ft | 315 kts | 265° |
| 2026-05-07 22:43 | 33.99590 | -117.79287 | 8834 ft | 311 kts | 265° |
| 2026-05-07 22:43 | 33.99331 | -117.81864 | 8401 ft | 308 kts | 266° |
| 2026-05-07 22:44 | 33.99088 | -117.84406 | 8105 ft | 301 kts | 265° |
| 2026-05-07 22:44 | 33.98858 | -117.86864 | 7937 ft | 290 kts | 265° |
| 2026-05-07 22:44 | 33.98633 | -117.89235 | 7748 ft | 281 kts | 265° |
| 2026-05-07 22:44 | 33.98429 | -117.91570 | 7388 ft | 279 kts | 266° |
| 2026-05-07 22:45 | 33.98252 | -117.93903 | 6987 ft | 280 kts | 266° |
| 2026-05-07 22:45 | 33.98072 | -117.96230 | 6618 ft | 278 kts | 264° |
| 2026-05-07 22:45 | 33.97847 | -117.98501 | 6286 ft | 275 kts | 263° |
| 2026-05-07 22:45 | 33.97597 | -118.00768 | 5946 ft | 271 kts | 263° |
| 2026-05-07 22:46 | 33.97365 | -118.02948 | 5644 ft | 268 kts | 263° |
| 2026-05-07 22:46 | 33.97139 | -118.05173 | 5305 ft | 263 kts | 263° |
| 2026-05-07 22:46 | 33.96922 | -118.07307 | 4990 ft | 249 kts | 264° |
| 2026-05-07 22:46 | 33.96718 | -118.09289 | 4724 ft | 234 kts | 264° |
| 2026-05-07 22:47 | 33.96524 | -118.11167 | 4418 ft | 218 kts | 264° |
| 2026-05-07 22:47 | 33.96344 | -118.12922 | 4140 ft | 205 kts | 264° |
| 2026-05-07 22:47 | 33.96173 | -118.14585 | 3880 ft | 194 kts | 264° |
| 2026-05-07 22:47 | 33.96011 | -118.16164 | 3628 ft | 192 kts | 264° |
| 2026-05-07 22:48 | 33.95846 | -118.17756 | 3389 ft | 187 kts | 265° |
| 2026-05-07 22:48 | 33.95690 | -118.19287 | 3161 ft | 181 kts | 265° |
| 2026-05-07 22:48 | 33.95536 | -118.20785 | 2916 ft | 181 kts | 264° |
| 2026-05-07 22:48 | 33.95382 | -118.22286 | 2697 ft | 178 kts | 264° |
| 2026-05-07 22:49 | 33.95234 | -118.23722 | 2480 ft | 168 kts | 264° |
| 2026-05-07 22:49 | 33.95096 | -118.25074 | 2254 ft | 158 kts | 262° |
| 2026-05-07 22:49 | 33.94965 | -118.26350 | 2050 ft | 149 kts | 261° |
| 2026-05-07 22:49 | 33.94846 | -118.27513 | 1876 ft | 135 kts | 261° |
| 2026-05-07 22:50 | 33.94734 | -118.28610 | 1697 ft | 130 kts | 258° |
| 2026-05-07 22:50 | 33.94622 | -118.29682 | 1514 ft | 129 kts | 260° |
| 2026-05-07 22:50 | 33.94509 | -118.30772 | 1357 ft | 133 kts | 259° |
| 2026-05-07 22:50 | 33.94396 | -118.31875 | 1169 ft | 132 kts | 261° |
| 2026-05-07 22:51 | 33.94286 | -118.32961 | 1014 ft | 130 kts | 259° |
| 2026-05-07 22:51 | 33.94175 | -118.34024 | 823 ft | 127 kts | 261° |
| 2026-05-07 22:51 | 33.94066 | -118.35083 | 657 ft | 126 kts | 262° |
| 2026-05-07 22:51 | 33.93962 | -118.36095 | 479 ft | 119 kts | 260° |
| 2026-05-07 22:52 | 33.93858 | -118.37104 | 325 ft | 124 kts | 262° |
| 2026-05-07 22:52 | 33.93751 | -118.38153 | 162 ft | 127 kts | 261° |
| 2026-05-07 22:52 | 33.93647 | -118.39153 | 99 ft | 101 kts | 263° |
| 2026-05-07 22:52 | 33.93602 | -118.39641 | 98 ft | 25 kts | 269° |
| 2026-05-07 22:53 | 33.93619 | -118.39830 | 100 ft | 20 kts | 285° |
| 2026-05-07 22:53 | 33.93659 | -118.39968 | 103 ft | 13 kts | 283° |
| 2026-05-07 22:53 | 33.93664 | -118.40020 | 103 ft | 2 kts | 272° |
| 2026-05-07 22:53 | 33.93664 | -118.40028 | 102 ft | 0 kts | 270° |
| 2026-05-07 22:55 | 33.93664 | -118.40029 | 102 ft | 1 kts | 270° |
| 2026-05-07 22:55 | 33.93664 | -118.40044 | 103 ft | 3 kts | 268° |
| 2026-05-07 22:55 | 33.93661 | -118.40089 | 99 ft | 10 kts | 264° |
| 2026-05-07 22:56 | 33.93650 | -118.40195 | 102 ft | 14 kts | 264° |
| 2026-05-07 22:56 | 33.93648 | -118.40311 | 101 ft | 14 kts | 283° |
| 2026-05-07 22:56 | 33.93699 | -118.40408 | 103 ft | 13 kts | 327° |
| 2026-05-07 22:56 | 33.93790 | -118.40431 | 101 ft | 14 kts | 350° |
| 2026-05-07 22:57 | 33.93826 | -118.40503 | 101 ft | 12 kts | 266° |
| 2026-05-07 22:57 | 33.93818 | -118.40604 | 99 ft | 12 kts | 264° |
| 2026-05-07 22:57 | 33.93806 | -118.40712 | 100 ft | 13 kts | 262° |
| 2026-05-07 22:57 | 33.93794 | -118.40826 | 99 ft | 14 kts | 263° |
| 2026-05-07 22:58 | 33.93782 | -118.40948 | 97 ft | 14 kts | 263° |
| 2026-05-07 22:58 | 33.93777 | -118.40998 | 97 ft | 3 kts | 263° |
| 2026-05-07 22:58 | 33.93776 | -118.41010 | 97 ft | 2 kts | 263° |
| 2026-05-07 22:58 | 33.93775 | -118.41020 | 97 ft | 0 kts | 263° |
| 2026-05-07 22:59 | 33.93774 | -118.41027 | 97 ft | 2 kts | 263° |
| 2026-05-07 22:59 | 33.93772 | -118.41046 | 97 ft | 3 kts | 263° |
| 2026-05-07 22:59 | 33.93769 | -118.41077 | 97 ft | 4 kts | 263° |
| 2026-05-07 23:00 | 33.93776 | -118.41135 | 99 ft | 11 kts | 308° |
| 2026-05-07 23:00 | 33.93873 | -118.41162 | 98 ft | 16 kts | 353° |
| 2026-05-07 23:00 | 33.93984 | -118.41178 | 100 ft | 15 kts | 353° |
| 2026-05-07 23:00 | 33.94061 | -118.41190 | 98 ft | 5 kts | 353° |
| 2026-05-07 23:01 | 33.94070 | -118.41191 | 97 ft | 0 kts | 353° |
| 2026-05-07 23:01 | 33.94078 | -118.41192 | 97 ft | 2 kts | 353° |
| 2026-05-07 23:01 | 33.94100 | -118.41195 | 95 ft | 4 kts | 353° |
| 2026-05-07 23:01 | 33.94149 | -118.41202 | 99 ft | 10 kts | 353° |
| 2026-05-07 23:02 | 33.94216 | -118.41212 | 99 ft | 9 kts | 354° |
| 2026-05-07 23:02 | 33.94254 | -118.41172 | 100 ft | 8 kts | 72° |
| 2026-05-07 23:02 | 33.94261 | -118.41117 | 98 ft | 3 kts | 83° |
| 2026-05-07 23:02 | 33.94262 | -118.41107 | 96 ft | 0 kts | 83° |